Time;durP1;ratioP1;P1;durP2;ratioP2;P2;SDS_P1;SDS_P2;PMS_P1;PMS_P2;Temp;Humidity;BMP_temperature;BMP_pressure;BME280_temperature;BME280_humidity;BME280_pressure;Samples;Min_cycle;Max_cycle;Signal;HPM_P1;HPM_P2
2021/03/28 00:01:01;;;;;;;16.33;4.87;;;;;;;;;;5035843;28;20253;-71
2021/03/28 00:03:34;;;;;;;18.53;4.37;;;;;;;;;;5029646;28;20208;-71
2021/03/28 00:06:29;;;;;;;17.97;4.13;;;;;;;;;;5039967;28;20212;-71
2021/03/28 00:09:32;;;;;;;15.30;3.57;;;;;;;;;;5030163;28;20327;-71
2021/03/28 00:12:19;;;;;;;13.93;4.30;;;;;;;;;;5041381;28;20204;-71
2021/03/28 00:15:06;;;;;;;17.57;3.93;;;;;;;;;;5032001;28;20304;-70
2021/03/28 00:17:41;;;;;;;14.80;4.20;;;;;;;;;;5043466;28;20196;-70
2021/03/28 00:20:15;;;;;;;13.30;3.83;;;;;;;;;;5030163;28;20554;-70
2021/03/28 00:23:06;;;;;;;11.20;3.67;;;;;;;;;;5049812;28;20169;-70
2021/03/28 00:25:35;;;;;;;15.87;3.63;;;;;;;;;;5035051;28;20283;-70
2021/03/28 00:28:02;;;;;;;15.87;3.57;;;;;;;;;;5038969;28;20178;-70
2021/03/28 00:30:27;;;;;;;15.33;4.27;;;;;;;;;;5030477;28;20264;-69
2021/03/28 00:33:04;;;;;;;16.57;3.20;;;;;;;;;;5038493;28;20588;-69
2021/03/28 00:35:48;;;;;;;15.40;3.47;;;;;;;;;;5034328;28;20482;-69
2021/03/28 00:38:27;;;;;;;13.77;3.00;;;;;;;;;;5038368;28;20188;-69
2021/03/28 00:41:12;;;;;;;11.27;2.80;;;;;;;;;;5035085;28;20181;-70
2021/03/28 00:43:44;;;;;;;20.80;3.90;;;;;;;;;;5050330;28;20181;-70
2021/03/28 00:46:23;;;;;;;15.23;3.53;;;;;;;;;;5035573;28;20178;-70
2021/03/28 00:48:52;;;;;;;12.93;3.13;;;;;;;;;;5042661;28;20197;-70
2021/03/28 00:51:20;;;;;;;13.67;3.23;;;;;;;;;;5033466;28;20203;-70
2021/03/28 00:54:00;;;;;;;16.50;4.17;;;;;;;;;;5040857;28;20189;-70
2021/03/28 00:56:46;;;;;;;14.33;3.83;;;;;;;;;;5034479;28;20697;-70
2021/03/28 00:59:22;;;;;;;15.10;3.30;;;;;;;;;;5045023;28;20197;-70
2021/03/28 01:02:11;;;;;;;14.73;2.90;;;;;;;;;;5033978;28;20189;-70
2021/03/28 01:04:49;;;;;;;12.27;3.37;;;;;;;;;;5046448;28;20703;-70
2021/03/28 01:07:14;;;;;;;15.80;3.13;;;;;;;;;;5036012;28;20196;-70
2021/03/28 01:10:13;;;;;;;15.10;3.10;;;;;;;;;;5043786;28;20181;-70
2021/03/28 01:12:41;;;;;;;16.13;3.87;;;;;;;;;;5035787;28;20204;-70
2021/03/28 01:15:51;;;;;;;16.20;3.27;;;;;;;;;;5042608;28;20296;-70
2021/03/28 01:18:35;;;;;;;11.73;3.30;;;;;;;;;;5027488;28;20193;-70
2021/03/28 01:21:44;;;;;;;10.40;2.70;;;;;;;;;;5040871;28;20670;-70
2021/03/28 01:24:21;;;;;;;15.47;3.57;;;;;;;;;;5023587;28;20209;-70
2021/03/28 01:27:08;;;;;;;10.50;2.90;;;;;;;;;;5038491;28;20641;-71
2021/03/28 01:29:55;;;;;;;14.60;3.47;;;;;;;;;;5038069;28;20189;-70
2021/03/28 01:32:54;;;;;;;12.97;3.47;;;;;;;;;;5039724;28;20185;-70
2021/03/28 01:35:26;;;;;;;16.13;3.77;;;;;;;;;;5040498;28;20233;-70
2021/03/28 01:38:03;;;;;;;10.87;3.73;;;;;;;;;;5029710;28;20178;-70
2021/03/28 01:40:39;;;;;;;9.00;3.00;;;;;;;;;;5040721;28;20197;-70
2021/03/28 01:43:34;;;;;;;14.97;3.90;;;;;;;;;;5032378;28;20217;-70
2021/03/28 01:46:30;;;;;;;13.53;3.77;;;;;;;;;;5039717;28;20182;-70
2021/03/28 01:49:09;;;;;;;15.13;3.57;;;;;;;;;;5033808;28;20284;-70
2021/03/28 01:52:13;;;;;;;21.50;4.77;;;;;;;;;;5037897;28;20193;-70
2021/03/28 01:54:41;;;;;;;16.90;3.83;;;;;;;;;;5025330;28;20233;-70
2021/03/28 01:57:24;;;;;;;13.10;3.80;;;;;;;;;;5036528;28;20190;-70
2021/03/28 02:00:11;;;;;;;13.53;4.00;;;;;;;;;;5034642;28;20204;-70
2021/03/28 02:02:50;;;;;;;11.67;3.83;;;;;;;;;;5043959;28;20173;-71
2021/03/28 02:05:33;;;;;;;15.07;4.53;;;;;;;;;;5028067;28;20182;-71
2021/03/28 02:08:27;;;;;;;15.20;4.67;;;;;;;;;;5041842;28;20546;-71
2021/03/28 02:11:27;;;;;;;12.47;4.10;;;;;;;;;;5032938;28;20186;-70
2021/03/28 02:14:10;;;;;;;16.30;4.73;;;;;;;;;;5039072;28;20269;-70
2021/03/28 02:17:14;;;;;;;20.57;5.03;;;;;;;;;;5033796;28;20227;-70
2021/03/28 02:20:10;;;;;;;11.50;5.00;;;;;;;;;;5032844;28;20201;-70
2021/03/28 02:22:53;;;;;;;16.63;4.70;;;;;;;;;;5039203;28;20280;-70
2021/03/28 02:25:24;;;;;;;21.10;4.70;;;;;;;;;;5031702;28;20186;-70
2021/03/28 02:28:19;;;;;;;12.67;3.77;;;;;;;;;;5043097;28;20525;-70
2021/03/28 02:30:58;;;;;;;17.77;4.30;;;;;;;;;;5033563;28;20259;-70
2021/03/28 02:33:26;;;;;;;11.77;4.43;;;;;;;;;;5035908;28;21006;-71
2021/03/28 02:35:58;;;;;;;13.07;4.40;;;;;;;;;;5034148;28;20207;-71
2021/03/28 02:38:55;;;;;;;18.40;4.73;;;;;;;;;;5035901;28;20277;-71
2021/03/28 02:41:41;;;;;;;15.57;4.67;;;;;;;;;;5034243;28;20678;-71
2021/03/28 02:44:42;;;;;;;15.37;4.37;;;;;;;;;;5038295;28;20632;-71
2021/03/28 02:48:05;;;;;;;12.67;4.23;;;;;;;;;;5029905;28;20236;-70
2021/03/28 02:50:58;;;;;;;17.00;4.77;;;;;;;;;;4991395;28;20282;-70
2021/03/28 02:53:40;;;;;;;17.90;4.60;;;;;;;;;;4985294;28;20187;-70
2021/03/28 02:56:13;;;;;;;15.47;4.30;;;;;;;;;;5023008;28;20287;-71
2021/03/28 02:59:00;;;;;;;16.97;4.33;;;;;;;;;;5033129;28;20193;-70
2021/03/28 03:01:56;;;;;;;16.47;4.70;;;;;;;;;;5036288;28;20235;-70
2021/03/28 03:05:03;;;;;;;14.70;4.40;;;;;;;;;;5024518;28;20300;-70
2021/03/28 03:07:48;;;;;;;15.50;3.90;;;;;;;;;;5030860;28;20611;-70
2021/03/28 03:10:19;;;;;;;12.10;3.57;;;;;;;;;;5034281;28;20166;-70
2021/03/28 03:13:03;;;;;;;18.00;4.30;;;;;;;;;;5031186;28;20205;-70
2021/03/28 03:15:59;;;;;;;16.40;4.30;;;;;;;;;;5038382;28;20226;-70
2021/03/28 03:18:48;;;;;;;13.93;4.73;;;;;;;;;;5030698;28;20290;-70
2021/03/28 03:21:19;;;;;;;17.40;4.40;;;;;;;;;;5033869;28;20533;-70
2021/03/28 03:24:19;;;;;;;19.17;4.53;;;;;;;;;;5029054;28;20281;-70
2021/03/28 03:27:03;;;;;;;14.90;3.87;;;;;;;;;;5032800;28;20310;-70
2021/03/28 03:29:59;;;;;;;16.13;3.63;;;;;;;;;;5027656;28;20223;-69
2021/03/28 03:32:41;;;;;;;11.60;3.63;;;;;;;;;;5038407;28;21318;-69
2021/03/28 03:35:44;;;;;;;15.83;3.97;;;;;;;;;;5027040;28;20220;-69
2021/03/28 03:38:27;;;;;;;13.77;4.70;;;;;;;;;;5034547;28;20193;-70
2021/03/28 03:41:12;;;;;;;19.73;4.20;;;;;;;;;;5027246;28;20190;-70
2021/03/28 03:43:59;;;;;;;15.37;4.27;;;;;;;;;;5035699;28;20193;-70
2021/03/28 03:46:50;;;;;;;15.37;4.10;;;;;;;;;;5023743;28;20193;-70
2021/03/28 03:49:59;;;;;;;14.47;3.93;;;;;;;;;;5035683;28;20185;-71
2021/03/28 03:52:45;;;;;;;13.70;4.00;;;;;;;;;;5029121;28;20201;-71
2021/03/28 03:55:29;;;;;;;14.70;3.63;;;;;;;;;;5031093;28;20232;-70
2021/03/28 03:58:08;;;;;;;15.13;3.50;;;;;;;;;;5035081;28;20197;-70
2021/03/28 04:00:47;;;;;;;19.23;3.80;;;;;;;;;;5025507;28;20545;-70
2021/03/28 04:03:28;;;;;;;12.47;3.13;;;;;;;;;;5033866;28;20641;-69
2021/03/28 04:06:24;;;;;;;21.13;4.60;;;;;;;;;;5033183;28;20197;-70
2021/03/28 04:09:02;;;;;;;15.50;3.67;;;;;;;;;;5033832;28;20201;-70
2021/03/28 04:11:53;;;;;;;13.47;4.30;;;;;;;;;;5025119;28;20583;-70
2021/03/28 04:14:41;;;;;;;15.53;3.50;;;;;;;;;;5038730;28;20193;-70
2021/03/28 04:17:18;;;;;;;16.97;4.00;;;;;;;;;;5033058;28;20589;-70
2021/03/28 04:20:02;;;;;;;13.00;3.90;;;;;;;;;;5043065;28;20280;-70
2021/03/28 04:23:10;;;;;;;14.10;4.03;;;;;;;;;;5026279;28;20177;-70
2021/03/28 04:25:47;;;;;;;14.07;3.57;;;;;;;;;;5034438;28;20697;-70
2021/03/28 04:28:24;;;;;;;12.87;3.27;;;;;;;;;;5030547;28;20217;-70
2021/03/28 04:30:55;;;;;;;15.97;4.00;;;;;;;;;;5031335;28;20263;-70
2021/03/28 04:33:46;;;;;;;14.67;4.63;;;;;;;;;;5029416;28;20228;-71
2021/03/28 04:36:17;;;;;;;16.47;3.80;;;;;;;;;;5039510;28;20240;-70
2021/03/28 04:38:55;;;;;;;15.93;3.40;;;;;;;;;;5031591;28;20630;-70
2021/03/28 04:41:56;;;;;;;12.73;3.40;;;;;;;;;;5039351;28;20239;-70
2021/03/28 04:45:01;;;;;;;15.30;3.27;;;;;;;;;;5029186;28;20616;-71
2021/03/28 04:48:02;;;;;;;16.53;3.37;;;;;;;;;;5033417;28;20501;-70
2021/03/28 04:51:04;;;;;;;11.50;3.00;;;;;;;;;;5041810;28;20220;-70
2021/03/28 04:53:48;;;;;;;11.13;2.83;;;;;;;;;;5032339;28;20227;-70
2021/03/28 04:56:37;;;;;;;15.77;3.57;;;;;;;;;;5042678;28;20209;-71
2021/03/28 04:59:18;;;;;;;12.20;3.00;;;;;;;;;;5031599;28;20205;-70
2021/03/28 05:02:10;;;;;;;8.33;3.07;;;;;;;;;;5035250;28;20555;-70
2021/03/28 05:04:57;;;;;;;10.90;2.60;;;;;;;;;;5034270;28;20205;-70
2021/03/28 05:07:37;;;;;;;16.67;3.43;;;;;;;;;;5042198;28;20276;-70
2021/03/28 05:10:33;;;;;;;10.97;3.40;;;;;;;;;;5026916;28;20228;-70
2021/03/28 05:13:28;;;;;;;12.63;2.83;;;;;;;;;;5040396;28;20193;-70
2021/03/28 05:16:22;;;;;;;15.77;3.33;;;;;;;;;;5010811;28;20229;-70
2021/03/28 05:19:06;;;;;;;12.80;3.30;;;;;;;;;;5027033;28;20536;-70
2021/03/28 05:21:42;;;;;;;22.17;4.10;;;;;;;;;;5040473;28;20629;-70
2021/03/28 05:24:33;;;;;;;12.93;2.70;;;;;;;;;;5033107;28;20542;-70
2021/03/28 05:27:17;;;;;;;10.83;2.60;;;;;;;;;;5040880;28;20288;-70
2021/03/28 05:30:08;;;;;;;15.13;3.10;;;;;;;;;;5029411;28;20525;-70
2021/03/28 05:32:55;;;;;;;15.87;2.93;;;;;;;;;;5041177;28;20238;-70
2021/03/28 05:35:46;;;;;;;10.60;2.90;;;;;;;;;;5034076;28;20295;-70
2021/03/28 05:38:33;;;;;;;13.87;3.50;;;;;;;;;;5041764;28;20292;-70
2021/03/28 05:41:27;;;;;;;13.87;3.10;;;;;;;;;;4337371;28;10021633;-70
2021/03/28 05:44:18;;;;;;;13.13;2.97;;;;;;;;;;5032461;28;20200;-70
2021/03/28 05:47:25;;;;;;;9.53;2.43;;;;;;;;;;5022866;28;20230;-71
2021/03/28 05:49:54;;;;;;;10.73;2.63;;;;;;;;;;5010923;28;20700;-71
2021/03/28 05:52:38;;;;;;;13.20;2.60;;;;;;;;;;5023706;28;20189;-70
2021/03/28 05:55:16;;;;;;;11.20;2.80;;;;;;;;;;5039248;28;20234;-70
2021/03/28 05:58:19;;;;;;;18.33;3.13;;;;;;;;;;5029369;28;20291;-71
2021/03/28 06:00:44;;;;;;;11.20;2.43;;;;;;;;;;5035132;28;20256;-71
2021/03/28 06:03:36;;;;;;;10.80;2.50;;;;;;;;;;5024803;28;21051;-69
2021/03/28 06:06:19;;;;;;;6.67;2.20;;;;;;;;;;5032671;28;20180;-70
2021/03/28 06:08:47;;;;;;;9.97;2.43;;;;;;;;;;5032596;28;20189;-69
2021/03/28 06:11:31;;;;;;;7.50;2.53;;;;;;;;;;5027247;28;20204;-69
2021/03/28 06:14:11;;;;;;;17.83;2.80;;;;;;;;;;5024882;28;20665;-69
2021/03/28 06:16:56;;;;;;;11.00;2.73;;;;;;;;;;5033381;28;20214;-71
2021/03/28 06:19:32;;;;;;;12.20;2.80;;;;;;;;;;5031777;28;20244;-69
2021/03/28 06:22:06;;;;;;;9.40;3.00;;;;;;;;;;5036284;28;20815;-70
2021/03/28 06:25:16;;;;;;;11.73;2.63;;;;;;;;;;5026002;28;20185;-69
2021/03/28 06:28:03;;;;;;;11.83;2.17;;;;;;;;;;5025800;28;20197;-70
2021/03/28 06:31:02;;;;;;;10.63;2.53;;;;;;;;;;5031158;28;20279;-70
2021/03/28 06:33:46;;;;;;;18.00;2.57;;;;;;;;;;5026136;28;20185;-70
2021/03/28 06:36:33;;;;;;;11.50;2.97;;;;;;;;;;5032000;28;20704;-69
2021/03/28 06:39:16;;;;;;;12.23;2.90;;;;;;;;;;5021535;28;20194;-70
2021/03/28 06:41:59;;;;;;;11.70;2.60;;;;;;;;;;5035471;28;20240;-70
2021/03/28 06:44:39;;;;;;;14.37;3.10;;;;;;;;;;5021638;28;20196;-70
2021/03/28 06:47:43;;;;;;;12.73;2.97;;;;;;;;;;5033870;28;20229;-71
2021/03/28 06:50:21;;;;;;;14.10;2.90;;;;;;;;;;5022954;28;20193;-70
2021/03/28 06:53:09;;;;;;;8.97;2.20;;;;;;;;;;5037713;28;20194;-70
2021/03/28 06:55:37;;;;;;;15.40;2.90;;;;;;;;;;5029325;28;20205;-70
2021/03/28 06:58:24;;;;;;;12.13;2.47;;;;;;;;;;5034349;28;20200;-70
2021/03/28 07:01:06;;;;;;;12.20;2.53;;;;;;;;;;5024933;28;20232;-70
2021/03/28 07:03:59;;;;;;;9.83;2.27;;;;;;;;;;5031817;28;20240;-70
2021/03/28 07:06:54;;;;;;;10.98;2.17;;;;;;;;;;5025832;28;20216;-71
2021/03/28 07:09:41;;;;;;;12.90;2.40;;;;;;;;;;5034074;28;20193;-70
2021/03/28 07:12:44;;;;;;;11.27;2.40;;;;;;;;;;5031562;28;20190;-70
2021/03/28 07:15:35;;;;;;;9.25;2.55;;;;;;;;;;5021998;28;20552;-70
2021/03/28 07:18:34;;;;;;;18.42;3.20;;;;;;;;;;5030429;28;20198;-70
2021/03/28 07:21:16;;;;;;;10.93;2.60;;;;;;;;;;5021956;28;20779;-70
2021/03/28 07:24:01;;;;;;;10.48;2.63;;;;;;;;;;5035847;28;20177;-70
2021/03/28 07:26:42;;;;;;;8.77;2.30;;;;;;;;;;5022222;28;20676;-70
2021/03/28 07:29:40;;;;;;;16.95;2.63;;;;;;;;;;5034243;28;20265;-71
2021/03/28 07:32:17;;;;;;;11.52;2.63;;;;;;;;;;5022862;28;20201;-70
2021/03/28 07:35:24;;;;;;;8.63;2.30;;;;;;;;;;5030926;28;20190;-70
2021/03/28 07:38:16;;;;;;;8.00;2.38;;;;;;;;;;5024877;28;20251;-70
2021/03/28 07:41:26;;;;;;;9.75;2.53;;;;;;;;;;5009503;28;20224;-71
2021/03/28 07:44:29;;;;;;;15.73;2.70;;;;;;;;;;5035572;28;20490;-70
2021/03/28 07:47:33;;;;;;;12.03;2.50;;;;;;;;;;5023335;28;20623;-70
2021/03/28 07:50:22;;;;;;;8.00;2.10;;;;;;;;;;5028803;28;20188;-70
2021/03/28 07:53:19;;;;;;;9.33;2.73;;;;;;;;;;5021081;28;20189;-70
2021/03/28 07:55:57;;;;;;;8.07;2.03;;;;;;;;;;5029530;28;20226;-70
2021/03/28 07:58:33;;;;;;;10.23;2.60;;;;;;;;;;5020328;28;20194;-70
2021/03/28 08:01:18;;;;;;;14.80;2.40;;;;;;;;;;5028311;28;20682;-70
2021/03/28 08:04:21;;;;;;;9.63;2.40;;;;;;;;;;5023254;28;20283;-70
2021/03/28 08:06:59;;;;;;;9.60;2.22;;;;;;;;;;5028328;28;20196;-70
2021/03/28 08:09:59;;;;;;;12.60;2.45;;;;;;;;;;5020881;28;20204;-71
2021/03/28 08:12:49;;;;;;;8.68;2.38;;;;;;;;;;5032598;28;20314;-70
2021/03/28 08:15:33;;;;;;;10.80;2.15;;;;;;;;;;5037826;28;20211;-70
2021/03/28 08:18:14;;;;;;;9.73;2.45;;;;;;;;;;5023468;28;20228;-70
2021/03/28 08:20:55;;;;;;;13.50;2.33;;;;;;;;;;5034818;28;20184;-70
2021/03/28 08:23:45;;;;;;;10.52;2.45;;;;;;;;;;5030313;28;20190;-70
2021/03/28 08:26:40;;;;;;;7.65;2.35;;;;;;;;;;5032063;28;20312;-70
2021/03/28 08:29:18;;;;;;;11.25;2.47;;;;;;;;;;5033175;28;20200;-72
2021/03/28 08:31:50;;;;;;;9.70;2.13;;;;;;;;;;5041973;28;20267;-70
2021/03/28 08:34:43;;;;;;;12.13;2.72;;;;;;;;;;5028439;28;20209;-72
2021/03/28 08:37:23;;;;;;;10.20;2.45;;;;;;;;;;5040128;28;20555;-70
2021/03/28 08:40:02;;;;;;;12.55;2.85;;;;;;;;;;5035166;28;20192;-71
2021/03/28 08:42:43;;;;;;;7.07;2.05;;;;;;;;;;5034712;28;20236;-70
2021/03/28 08:45:18;;;;;;;9.60;2.42;;;;;;;;;;5036106;28;20189;-71
2021/03/28 08:48:20;;;;;;;7.63;2.40;;;;;;;;;;5036620;28;20311;-72
2021/03/28 08:50:58;;;;;;;10.63;2.72;;;;;;;;;;5025762;28;20275;-71
2021/03/28 08:54:02;;;;;;;9.63;2.50;;;;;;;;;;5032224;28;20255;-70
2021/03/28 08:56:52;;;;;;;12.00;2.67;;;;;;;;;;5034171;28;20476;-69
2021/03/28 08:59:35;;;;;;;9.00;2.70;;;;;;;;;;5037887;28;20186;-70
2021/03/28 09:02:06;;;;;;;9.10;2.70;;;;;;;;;;5025313;28;20553;-70
2021/03/28 09:04:56;;;;;;;11.77;3.08;;;;;;;;;;5037636;28;20213;-69
2021/03/28 09:07:33;;;;;;;15.48;3.65;;;;;;;;;;5031477;28;20660;-70
2021/03/28 09:10:25;;;;;;;16.73;3.17;;;;;;;;;;5036740;28;20212;-70
2021/03/28 09:13:12;;;;;;;14.77;3.08;;;;;;;;;;5030273;28;20681;-69
2021/03/28 09:16:08;;;;;;;11.52;2.20;;;;;;;;;;5033276;28;20553;-70
2021/03/28 09:19:05;;;;;;;9.05;2.72;;;;;;;;;;5035100;28;20193;-69
2021/03/28 09:21:45;;;;;;;8.48;2.33;;;;;;;;;;5019417;28;20633;-70
2021/03/28 09:25:03;;;;;;;8.05;2.83;;;;;;;;;;5034298;28;20185;-70
2021/03/28 09:27:43;;;;;;;12.32;2.90;;;;;;;;;;5007048;28;20214;-70
2021/03/28 09:30:26;;;;;;;8.95;2.65;;;;;;;;;;5015899;28;20189;-70
2021/03/28 09:33:09;;;;;;;14.95;3.20;;;;;;;;;;5021063;28;20210;-70
2021/03/28 09:35:34;;;;;;;8.82;2.67;;;;;;;;;;5041686;28;21071;-70
2021/03/28 09:38:38;;;;;;;6.82;2.22;;;;;;;;;;5033254;28;20696;-71
2021/03/28 09:41:21;;;;;;;10.85;2.58;;;;;;;;;;5040702;28;20188;-70
2021/03/28 09:44:01;;;;;;;8.70;2.70;;;;;;;;;;5026171;28;20190;-71
2021/03/28 09:46:39;;;;;;;12.75;2.78;;;;;;;;;;5038896;28;20173;-71
2021/03/28 09:49:37;;;;;;;11.15;2.42;;;;;;;;;;5030669;28;20201;-71
2021/03/28 09:52:41;;;;;;;10.18;2.70;;;;;;;;;;5038222;28;20177;-71
2021/03/28 09:55:13;;;;;;;10.60;2.67;;;;;;;;;;5028311;28;20217;-71
2021/03/28 09:58:07;;;;;;;11.02;2.08;;;;;;;;;;5040430;28;20668;-71
2021/03/28 10:00:47;;;;;;;11.32;2.95;;;;;;;;;;5039104;28;20195;-71
2021/03/28 10:03:30;;;;;;;13.85;3.08;;;;;;;;;;5036381;28;20220;-71
2021/03/28 10:06:16;;;;;;;11.90;2.30;;;;;;;;;;5033012;28;20261;-71
2021/03/28 10:08:44;;;;;;;11.65;3.60;;;;;;;;;;5028769;28;20193;-71
2021/03/28 10:11:48;;;;;;;11.30;2.50;;;;;;;;;;5038589;28;20178;-71
2021/03/28 10:14:40;;;;;;;11.90;2.17;;;;;;;;;;5030445;28;20279;-71
2021/03/28 10:17:27;;;;;;;7.32;2.20;;;;;;;;;;5036594;28;20562;-71
2021/03/28 10:20:02;;;;;;;12.65;2.60;;;;;;;;;;5029138;28;20208;-71
2021/03/28 10:22:59;;;;;;;9.45;2.42;;;;;;;;;;5036831;28;20547;-71
2021/03/28 10:25:27;;;;;;;9.75;2.72;;;;;;;;;;5029433;28;20186;-70
2021/03/28 10:28:20;;;;;;;9.88;2.00;;;;;;;;;;5034607;28;20271;-69
2021/03/28 10:31:07;;;;;;;14.38;2.40;;;;;;;;;;5029667;28;20259;-70
2021/03/28 10:33:51;;;;;;;8.65;2.03;;;;;;;;;;5036455;28;20592;-70
2021/03/28 10:36:38;;;;;;;9.93;2.92;;;;;;;;;;5023289;28;20272;-69
2021/03/28 10:39:25;;;;;;;9.85;2.17;;;;;;;;;;5036596;28;20546;-70
2021/03/28 10:42:18;;;;;;;11.13;2.72;;;;;;;;;;5026854;28;20190;-70
2021/03/28 10:45:15;;;;;;;10.10;1.80;;;;;;;;;;5042177;28;20475;-69
2021/03/28 10:48:17;;;;;;;6.18;1.58;;;;;;;;;;5029467;28;20685;-71
2021/03/28 10:50:50;;;;;;;9.05;1.90;;;;;;;;;;5029525;28;20578;-71
2021/03/28 10:54:10;;;;;;;11.48;1.83;;;;;;;;;;5027067;28;20193;-71
2021/03/28 10:57:08;;;;;;;9.82;1.85;;;;;;;;;;5006307;28;20250;-71
2021/03/28 10:59:58;;;;;;;11.20;2.05;;;;;;;;;;5036135;28;20194;-71
2021/03/28 11:02:43;;;;;;;8.85;2.22;;;;;;;;;;5026574;28;20274;-70
2021/03/28 11:05:38;;;;;;;10.73;2.17;;;;;;;;;;5037442;28;20278;-71
2021/03/28 11:08:16;;;;;;;9.77;2.08;;;;;;;;;;5026667;28;20280;-71
2021/03/28 11:11:09;;;;;;;10.27;2.00;;;;;;;;;;5035197;28;20212;-70
2021/03/28 11:13:43;;;;;;;7.65;1.67;;;;;;;;;;5026312;28;20190;-71
2021/03/28 11:16:15;;;;;;;8.60;1.90;;;;;;;;;;5032963;28;20802;-71
2021/03/28 11:19:04;;;;;;;9.88;2.00;;;;;;;;;;5030383;28;20189;-70
2021/03/28 11:21:38;;;;;;;9.93;2.10;;;;;;;;;;5035160;28;20333;-69
2021/03/28 11:24:26;;;;;;;5.68;1.98;;;;;;;;;;5027621;28;20550;-70
2021/03/28 11:26:51;;;;;;;7.10;2.05;;;;;;;;;;5039478;28;20170;-70
2021/03/28 11:29:47;;;;;;;9.43;1.50;;;;;;;;;;5025102;28;20190;-70
2021/03/28 11:32:30;;;;;;;11.02;2.20;;;;;;;;;;5033402;28;20549;-70
2021/03/28 11:35:11;;;;;;;8.13;2.03;;;;;;;;;;5029618;28;20191;-69
2021/03/28 11:37:47;;;;;;;10.20;2.45;;;;;;;;;;5036842;28;20177;-70
2021/03/28 11:40:15;;;;;;;10.18;2.58;;;;;;;;;;5028863;28;20204;-70
2021/03/28 11:42:42;;;;;;;8.57;2.17;;;;;;;;;;5036933;28;20197;-71
2021/03/28 11:45:48;;;;;;;10.13;1.58;;;;;;;;;;5025489;28;20189;-70
2021/03/28 11:48:48;;;;;;;7.32;1.92;;;;;;;;;;4339457;28;10001051;-70
2021/03/28 11:51:27;;;;;;;6.53;1.52;;;;;;;;;;5033365;28;20842;-71
2021/03/28 11:54:18;;;;;;;11.13;2.20;;;;;;;;;;5021760;28;20197;-71
2021/03/28 11:57:02;;;;;;;9.38;1.77;;;;;;;;;;5033913;28;20236;-71
2021/03/28 11:59:37;;;;;;;9.95;1.88;;;;;;;;;;5028880;28;20192;-71
2021/03/28 12:02:22;;;;;;;8.88;1.73;;;;;;;;;;5033920;28;20542;-70
2021/03/28 12:05:12;;;;;;;9.45;1.73;;;;;;;;;;5021693;28;20204;-71
2021/03/28 12:07:44;;;;;;;10.88;2.13;;;;;;;;;;5038148;28;20181;-71
2021/03/28 12:10:10;;;;;;;7.65;2.03;;;;;;;;;;5025008;28;20212;-70
2021/03/28 12:12:48;;;;;;;9.40;2.22;;;;;;;;;;5029870;28;20193;-69
2021/03/28 12:15:44;;;;;;;7.75;2.40;;;;;;;;;;5016768;28;20673;-70
2021/03/28 12:18:40;;;;;;;9.68;2.03;;;;;;;;;;5031758;28;20181;-69
2021/03/28 12:21:08;;;;;;;8.98;2.10;;;;;;;;;;5024902;28;20548;-70
2021/03/28 12:23:40;;;;;;;5.15;2.00;;;;;;;;;;5032754;28;20177;-69
2021/03/28 12:26:14;;;;;;;8.30;2.08;;;;;;;;;;5021340;28;20186;-70
2021/03/28 12:28:48;;;;;;;8.93;1.95;;;;;;;;;;5039667;28;20200;-70
2021/03/28 12:31:39;;;;;;;10.98;1.95;;;;;;;;;;5022336;28;20197;-70
2021/03/28 12:34:08;;;;;;;8.13;1.98;;;;;;;;;;5036382;28;20355;-70
2021/03/28 12:36:54;;;;;;;11.00;1.88;;;;;;;;;;5024788;28;20232;-71
2021/03/28 12:39:24;;;;;;;13.95;2.00;;;;;;;;;;5038774;28;20190;-70
2021/03/28 12:42:02;;;;;;;8.60;2.05;;;;;;;;;;5025296;28;20256;-70
2021/03/28 12:44:36;;;;;;;9.82;2.30;;;;;;;;;;5029104;28;20189;-71
2021/03/28 12:47:13;;;;;;;10.57;2.15;;;;;;;;;;5024347;28;20244;-70
2021/03/28 12:49:57;;;;;;;9.05;2.83;;;;;;;;;;5031376;28;20178;-69
2021/03/28 12:52:44;;;;;;;8.13;2.17;;;;;;;;;;5025167;28;20665;-70
2021/03/28 12:55:23;;;;;;;11.68;3.03;;;;;;;;;;5033514;28;20209;-69
2021/03/28 12:57:52;;;;;;;11.63;2.17;;;;;;;;;;5023868;28;20189;-70
2021/03/28 13:00:44;;;;;;;8.77;2.53;;;;;;;;;;5023613;28;20289;-70
2021/03/28 13:03:22;;;;;;;12.55;2.90;;;;;;;;;;5016177;28;20424;-70
2021/03/28 13:06:13;;;;;;;8.88;2.10;;;;;;;;;;5027437;28;20200;-70
2021/03/28 13:08:45;;;;;;;10.00;2.13;;;;;;;;;;5019455;28;20193;-70
2021/03/28 13:11:11;;;;;;;12.32;2.30;;;;;;;;;;5033633;28;20621;-70
2021/03/28 13:13:44;;;;;;;15.50;2.13;;;;;;;;;;5027003;28;20185;-70
2021/03/28 13:16:23;;;;;;;10.38;2.30;;;;;;;;;;5030446;28;20222;-69
2021/03/28 13:18:48;;;;;;;10.93;2.55;;;;;;;;;;5025819;28;20559;-70
2021/03/28 13:21:19;;;;;;;6.80;2.17;;;;;;;;;;5028800;28;20193;-70
2021/03/28 13:23:48;;;;;;;11.88;2.15;;;;;;;;;;5024044;28;20199;-70
2021/03/28 13:26:21;;;;;;;6.82;2.13;;;;;;;;;;5031185;28;20320;-70
2021/03/28 13:29:12;;;;;;;8.75;3.10;;;;;;;;;;5043146;28;20210;-70
2021/03/28 13:31:55;;;;;;;9.32;2.40;;;;;;;;;;5030883;28;20687;-71
2021/03/28 13:34:31;;;;;;;14.50;2.58;;;;;;;;;;5022565;28;20186;-70
2021/03/28 13:37:11;;;;;;;15.10;2.72;;;;;;;;;;5031785;28;20263;-70
2021/03/28 13:39:55;;;;;;;9.90;2.30;;;;;;;;;;5025185;28;20250;-70
2021/03/28 13:42:25;;;;;;;11.35;2.15;;;;;;;;;;5033409;28;20208;-70
2021/03/28 13:45:07;;;;;;;10.65;2.08;;;;;;;;;;5025679;28;20284;-71
2021/03/28 13:47:42;;;;;;;10.68;2.40;;;;;;;;;;5034936;28;20229;-71
2021/03/28 13:50:26;;;;;;;9.18;2.22;;;;;;;;;;5032208;28;21178;-70
2021/03/28 13:52:51;;;;;;;11.07;2.75;;;;;;;;;;5034346;28;20177;-71
2021/03/28 13:55:40;;;;;;;12.00;2.30;;;;;;;;;;5026363;28;20263;-71
2021/03/28 13:58:22;;;;;;;15.80;2.28;;;;;;;;;;5036126;28;20584;-70
2021/03/28 14:01:03;;;;;;;13.70;2.63;;;;;;;;;;5025394;28;20200;-71
2021/03/28 14:03:37;;;;;;;7.50;2.25;;;;;;;;;;5031601;28;20201;-70
2021/03/28 14:06:27;;;;;;;11.60;2.60;;;;;;;;;;5030090;28;20244;-70
2021/03/28 14:09:08;;;;;;;11.82;2.97;;;;;;;;;;5034813;28;20617;-70
2021/03/28 14:11:48;;;;;;;8.27;2.40;;;;;;;;;;5024394;28;20274;-70
2021/03/28 14:14:33;;;;;;;10.45;2.85;;;;;;;;;;5030648;28;20799;-70
2021/03/28 14:17:22;;;;;;;14.52;2.90;;;;;;;;;;5029793;28;20508;-70
2021/03/28 14:19:49;;;;;;;8.18;2.60;;;;;;;;;;5035977;28;20174;-70
2021/03/28 14:22:43;;;;;;;8.60;2.70;;;;;;;;;;5028862;28;20213;-70
2021/03/28 14:25:14;;;;;;;8.48;2.45;;;;;;;;;;5032036;28;20177;-70
2021/03/28 14:27:42;;;;;;;10.95;2.60;;;;;;;;;;5027437;28;20190;-71
2021/03/28 14:30:13;;;;;;;12.48;3.15;;;;;;;;;;5037331;28;20642;-71
2021/03/28 14:32:43;;;;;;;12.40;2.85;;;;;;;;;;5029662;28;20216;-71
2021/03/28 14:35:36;;;;;;;13.00;3.05;;;;;;;;;;5033934;28;20277;-70
2021/03/28 14:38:36;;;;;;;10.48;3.28;;;;;;;;;;5029848;28;20223;-70
2021/03/28 14:41:12;;;;;;;15.35;3.70;;;;;;;;;;5037873;28;20189;-71
2021/03/28 14:44:06;;;;;;;10.20;3.53;;;;;;;;;;5026429;28;20201;-71
2021/03/28 14:47:02;;;;;;;9.60;2.67;;;;;;;;;;5033814;28;20502;-71
2021/03/28 14:49:28;;;;;;;9.13;2.42;;;;;;;;;;5026096;28;20197;-71
2021/03/28 14:52:19;;;;;;;13.80;2.90;;;;;;;;;;5041114;28;20356;-71
2021/03/28 14:55:06;;;;;;;15.02;3.38;;;;;;;;;;5030865;28;20182;-71
2021/03/28 14:57:44;;;;;;;9.45;2.30;;;;;;;;;;5034682;28;20194;-71
2021/03/28 15:00:29;;;;;;;7.95;2.42;;;;;;;;;;5027226;28;20593;-71
2021/03/28 15:03:14;;;;;;;10.85;3.00;;;;;;;;;;5042527;28;20185;-71
2021/03/28 15:05:51;;;;;;;11.48;2.78;;;;;;;;;;5032689;28;20543;-71
2021/03/28 15:08:32;;;;;;;8.88;2.33;;;;;;;;;;5039406;28;20529;-71
2021/03/28 15:11:11;;;;;;;9.02;2.90;;;;;;;;;;5033705;28;20264;-71
2021/03/28 15:13:53;;;;;;;10.63;2.80;;;;;;;;;;5039675;28;21314;-71
2021/03/28 15:16:24;;;;;;;11.65;2.72;;;;;;;;;;5031716;28;20213;-71
2021/03/28 15:19:23;;;;;;;9.93;2.33;;;;;;;;;;5037049;28;20188;-71
2021/03/28 15:22:20;;;;;;;9.73;2.58;;;;;;;;;;5026756;28;20186;-71
2021/03/28 15:25:07;;;;;;;10.80;2.58;;;;;;;;;;5025306;28;20188;-70
2021/03/28 15:27:52;;;;;;;15.85;2.72;;;;;;;;;;5035915;28;20201;-71
2021/03/28 15:30:24;;;;;;;12.35;2.95;;;;;;;;;;5025650;28;20304;-71
2021/03/28 15:32:52;;;;;;;13.13;2.92;;;;;;;;;;5033797;28;20645;-71
2021/03/28 15:35:32;;;;;;;11.25;2.88;;;;;;;;;;5030222;28;20197;-70
2021/03/28 15:38:19;;;;;;;16.58;3.42;;;;;;;;;;5035101;28;20189;-70
2021/03/28 15:40:53;;;;;;;9.43;2.63;;;;;;;;;;5027188;28;20220;-70
2021/03/28 15:43:47;;;;;;;12.35;3.17;;;;;;;;;;5033001;28;20176;-70
2021/03/28 15:46:43;;;;;;;13.77;3.10;;;;;;;;;;5025487;28;20182;-69
2021/03/28 15:49:16;;;;;;;13.40;3.22;;;;;;;;;;5030100;28;20796;-71
2021/03/28 15:52:20;;;;;;;12.68;3.30;;;;;;;;;;5025549;28;20239;-71
2021/03/28 15:55:23;;;;;;;7.18;2.58;;;;;;;;;;5030167;28;20189;-70
2021/03/28 15:58:16;;;;;;;11.55;2.95;;;;;;;;;;5029569;28;20193;-70
2021/03/28 16:00:54;;;;;;;17.73;3.28;;;;;;;;;;5029660;28;20190;-70
2021/03/28 16:03:43;;;;;;;14.02;3.38;;;;;;;;;;5027238;28;20209;-70
2021/03/28 16:06:12;;;;;;;9.55;2.92;;;;;;;;;;5034203;28;20212;-70
2021/03/28 16:09:14;;;;;;;11.90;2.90;;;;;;;;;;5031316;28;20196;-70
2021/03/28 16:11:58;;;;;;;13.38;4.07;;;;;;;;;;5036344;28;20666;-70
2021/03/28 16:14:48;;;;;;;16.17;4.38;;;;;;;;;;5034463;28;20246;-70
2021/03/28 16:17:51;;;;;;;14.20;4.07;;;;;;;;;;5034917;28;20243;-71